sensor_id;sensor_type;location;lat;lon;timestamp;temperature;humidity
22629;DHT22;11481;53.694;9.910;2022-12-18T00:01:21;-2.70;99.90
22629;DHT22;11481;53.694;9.910;2022-12-18T00:03:48;-2.80;99.90
22629;DHT22;11481;53.694;9.910;2022-12-18T00:06:18;-2.70;99.90
22629;DHT22;11481;53.694;9.910;2022-12-18T00:08:45;-2.80;99.90
22629;DHT22;11481;53.694;9.910;2022-12-18T00:11:14;-2.80;99.90
22629;DHT22;11481;53.694;9.910;2022-12-18T00:13:42;-2.80;99.90
22629;DHT22;11481;53.694;9.910;2022-12-18T00:16:11;-2.80;99.90
22629;DHT22;11481;53.694;9.910;2022-12-18T00:18:39;-2.80;99.90
22629;DHT22;11481;53.694;9.910;2022-12-18T00:21:08;-2.90;99.90
22629;DHT22;11481;53.694;9.910;2022-12-18T00:23:36;-2.90;99.90
22629;DHT22;11481;53.694;9.910;2022-12-18T00:26:06;-2.90;99.90
22629;DHT22;11481;53.694;9.910;2022-12-18T00:28:33;-2.90;99.90
22629;DHT22;11481;53.694;9.910;2022-12-18T00:31:04;-2.90;99.90
22629;DHT22;11481;53.694;9.910;2022-12-18T00:33:32;-2.80;99.90
22629;DHT22;11481;53.694;9.910;2022-12-18T00:36:08;-2.80;99.90
22629;DHT22;11481;53.694;9.910;2022-12-18T00:38:36;-2.90;99.90
22629;DHT22;11481;53.694;9.910;2022-12-18T00:41:03;-3.00;99.90
22629;DHT22;11481;53.694;9.910;2022-12-18T00:43:29;-2.90;99.90
22629;DHT22;11481;53.694;9.910;2022-12-18T00:45:56;-3.00;99.90
22629;DHT22;11481;53.694;9.910;2022-12-18T00:48:23;-3.00;99.90
22629;DHT22;11481;53.694;9.910;2022-12-18T00:50:50;-3.00;99.90
22629;DHT22;11481;53.694;9.910;2022-12-18T00:53:17;-3.00;99.90
22629;DHT22;11481;53.694;9.910;2022-12-18T00:55:45;-3.10;99.90
22629;DHT22;11481;53.694;9.910;2022-12-18T00:58:13;-3.10;99.90
22629;DHT22;11481;53.694;9.910;2022-12-18T01:00:41;-3.00;99.90
22629;DHT22;11481;53.694;9.910;2022-12-18T01:03:09;-3.00;99.90
22629;DHT22;11481;53.694;9.910;2022-12-18T01:05:40;-3.00;99.90
22629;DHT22;11481;53.694;9.910;2022-12-18T01:08:07;-3.00;99.90
22629;DHT22;11481;53.694;9.910;2022-12-18T01:10:33;-3.10;99.90
22629;DHT22;11481;53.694;9.910;2022-12-18T01:13:00;-3.20;99.90
22629;DHT22;11481;53.694;9.910;2022-12-18T01:15:27;-3.20;99.90
22629;DHT22;11481;53.694;9.910;2022-12-18T01:17:53;-3.10;99.90
22629;DHT22;11481;53.694;9.910;2022-12-18T01:20:20;-3.10;99.90
22629;DHT22;11481;53.694;9.910;2022-12-18T01:22:47;-3.10;99.90
22629;DHT22;11481;53.694;9.910;2022-12-18T01:25:14;-3.20;99.90
22629;DHT22;11481;53.694;9.910;2022-12-18T01:27:40;-3.20;99.90
22629;DHT22;11481;53.694;9.910;2022-12-18T01:30:07;-3.20;99.90
22629;DHT22;11481;53.694;9.910;2022-12-18T01:32:34;-3.20;99.90
22629;DHT22;11481;53.694;9.910;2022-12-18T01:35:01;-3.20;99.90
22629;DHT22;11481;53.694;9.910;2022-12-18T01:37:27;-3.20;99.90
22629;DHT22;11481;53.694;9.910;2022-12-18T01:39:54;-3.20;99.90
22629;DHT22;11481;53.694;9.910;2022-12-18T01:42:22;-3.20;99.90
22629;DHT22;11481;53.694;9.910;2022-12-18T01:45:21;-3.20;99.90
22629;DHT22;11481;53.694;9.910;2022-12-18T01:47:59;-3.20;99.90
22629;DHT22;11481;53.694;9.910;2022-12-18T01:50:36;-3.20;99.90
22629;DHT22;11481;53.694;9.910;2022-12-18T01:53:15;-3.20;99.90
22629;DHT22;11481;53.694;9.910;2022-12-18T01:55:52;-3.30;99.90
22629;DHT22;11481;53.694;9.910;2022-12-18T01:58:46;-3.30;99.90
22629;DHT22;11481;53.694;9.910;2022-12-18T02:01:08;-3.30;99.90
22629;DHT22;11481;53.694;9.910;2022-12-18T02:03:36;-3.30;99.90
22629;DHT22;11481;53.694;9.910;2022-12-18T02:06:15;-3.40;99.90
22629;DHT22;11481;53.694;9.910;2022-12-18T02:09:01;-3.40;99.90
22629;DHT22;11481;53.694;9.910;2022-12-18T02:11:53;-3.40;99.90
22629;DHT22;11481;53.694;9.910;2022-12-18T02:18:11;-3.40;99.90
22629;DHT22;11481;53.694;9.910;2022-12-18T02:20:59;-3.40;99.90
22629;DHT22;11481;53.694;9.910;2022-12-18T02:23:46;-3.40;99.90
22629;DHT22;11481;53.694;9.910;2022-12-18T02:26:20;-3.40;99.90
22629;DHT22;11481;53.694;9.910;2022-12-18T02:28:53;-3.50;99.90
22629;DHT22;11481;53.694;9.910;2022-12-18T02:31:26;-3.50;99.90
22629;DHT22;11481;53.694;9.910;2022-12-18T02:33:56;-3.50;99.90
22629;DHT22;11481;53.694;9.910;2022-12-18T02:36:27;-3.50;99.90
22629;DHT22;11481;53.694;9.910;2022-12-18T02:38:55;-3.50;99.90
22629;DHT22;11481;53.694;9.910;2022-12-18T02:41:23;-3.50;99.90
22629;DHT22;11481;53.694;9.910;2022-12-18T02:43:56;-3.60;99.90
22629;DHT22;11481;53.694;9.910;2022-12-18T02:46:45;-3.60;99.90
22629;DHT22;11481;53.694;9.910;2022-12-18T02:49:33;-3.70;99.90
22629;DHT22;11481;53.694;9.910;2022-12-18T02:55:08;-3.70;99.90
22629;DHT22;11481;53.694;9.910;2022-12-18T02:57:50;-3.60;99.90
22629;DHT22;11481;53.694;9.910;2022-12-18T03:00:33;-3.60;99.90
22629;DHT22;11481;53.694;9.910;2022-12-18T03:03:16;-3.60;99.90
22629;DHT22;11481;53.694;9.910;2022-12-18T03:06:11;-3.60;99.90
22629;DHT22;11481;53.694;9.910;2022-12-18T03:08:44;-3.60;99.90
22629;DHT22;11481;53.694;9.910;2022-12-18T03:11:14;-3.60;99.90
22629;DHT22;11481;53.694;9.910;2022-12-18T03:13:50;-3.60;99.90
22629;DHT22;11481;53.694;9.910;2022-12-18T03:16:22;-3.60;99.90
22629;DHT22;11481;53.694;9.910;2022-12-18T03:18:54;-3.60;99.90
22629;DHT22;11481;53.694;9.910;2022-12-18T03:21:33;-3.60;99.90
22629;DHT22;11481;53.694;9.910;2022-12-18T03:24:04;-3.60;99.90
22629;DHT22;11481;53.694;9.910;2022-12-18T03:26:33;-3.60;99.90
22629;DHT22;11481;53.694;9.910;2022-12-18T03:29:06;-3.70;99.90
22629;DHT22;11481;53.694;9.910;2022-12-18T03:31:35;-3.60;99.90
22629;DHT22;11481;53.694;9.910;2022-12-18T03:34:15;-3.70;99.90
22629;DHT22;11481;53.694;9.910;2022-12-18T03:36:43;-3.70;99.90
22629;DHT22;11481;53.694;9.910;2022-12-18T03:39:10;-3.70;99.90
22629;DHT22;11481;53.694;9.910;2022-12-18T03:41:47;-3.70;99.90
22629;DHT22;11481;53.694;9.910;2022-12-18T03:47:53;-3.70;99.90
22629;DHT22;11481;53.694;9.910;2022-12-18T03:50:51;-3.70;99.90
22629;DHT22;11481;53.694;9.910;2022-12-18T03:55:59;-3.80;99.90
22629;DHT22;11481;53.694;9.910;2022-12-18T03:58:27;-3.80;99.90
22629;DHT22;11481;53.694;9.910;2022-12-18T04:00:58;-3.80;99.90
22629;DHT22;11481;53.694;9.910;2022-12-18T04:03:27;-3.80;99.90
22629;DHT22;11481;53.694;9.910;2022-12-18T04:05:57;-3.80;99.90
22629;DHT22;11481;53.694;9.910;2022-12-18T04:08:25;-3.80;99.90
22629;DHT22;11481;53.694;9.910;2022-12-18T04:10:52;-3.70;99.90
22629;DHT22;11481;53.694;9.910;2022-12-18T04:13:24;-3.70;99.90
22629;DHT22;11481;53.694;9.910;2022-12-18T04:15:51;-3.70;99.90
22629;DHT22;11481;53.694;9.910;2022-12-18T04:18:17;-3.70;99.90
22629;DHT22;11481;53.694;9.910;2022-12-18T04:20:44;-3.80;99.90
22629;DHT22;11481;53.694;9.910;2022-12-18T04:23:11;-3.80;99.90
22629;DHT22;11481;53.694;9.910;2022-12-18T04:25:38;-3.80;99.90
22629;DHT22;11481;53.694;9.910;2022-12-18T04:28:04;-3.80;99.90
22629;DHT22;11481;53.694;9.910;2022-12-18T04:30:31;-3.80;99.90
22629;DHT22;11481;53.694;9.910;2022-12-18T04:32:58;-3.90;99.90
22629;DHT22;11481;53.694;9.910;2022-12-18T04:35:24;-3.90;99.90
22629;DHT22;11481;53.694;9.910;2022-12-18T04:37:51;-3.90;99.90
22629;DHT22;11481;53.694;9.910;2022-12-18T04:40:18;-3.90;99.90
22629;DHT22;11481;53.694;9.910;2022-12-18T04:42:44;-3.90;99.90
22629;DHT22;11481;53.694;9.910;2022-12-18T04:45:11;-3.90;99.90
22629;DHT22;11481;53.694;9.910;2022-12-18T04:47:37;-3.90;99.90
22629;DHT22;11481;53.694;9.910;2022-12-18T04:50:04;-3.90;99.90
22629;DHT22;11481;53.694;9.910;2022-12-18T04:52:31;-3.90;99.90
22629;DHT22;11481;53.694;9.910;2022-12-18T04:54:58;-4.00;99.90
22629;DHT22;11481;53.694;9.910;2022-12-18T04:57:24;-4.00;99.90
22629;DHT22;11481;53.694;9.910;2022-12-18T04:59:51;-4.00;99.90
22629;DHT22;11481;53.694;9.910;2022-12-18T05:02:17;-4.00;99.90
22629;DHT22;11481;53.694;9.910;2022-12-18T05:04:45;-4.10;99.90
22629;DHT22;11481;53.694;9.910;2022-12-18T05:07:12;-4.00;99.90
22629;DHT22;11481;53.694;9.910;2022-12-18T05:09:38;-4.10;99.90
22629;DHT22;11481;53.694;9.910;2022-12-18T05:12:05;-4.10;99.90
22629;DHT22;11481;53.694;9.910;2022-12-18T05:14:32;-4.10;99.90
22629;DHT22;11481;53.694;9.910;2022-12-18T05:16:58;-4.20;99.90
22629;DHT22;11481;53.694;9.910;2022-12-18T05:19:26;-4.20;99.90
22629;DHT22;11481;53.694;9.910;2022-12-18T05:21:53;-4.20;99.90
22629;DHT22;11481;53.694;9.910;2022-12-18T05:24:20;-4.20;99.90
22629;DHT22;11481;53.694;9.910;2022-12-18T05:26:46;-4.20;99.90
22629;DHT22;11481;53.694;9.910;2022-12-18T05:29:13;-4.20;99.90
22629;DHT22;11481;53.694;9.910;2022-12-18T05:31:40;-4.20;99.90
22629;DHT22;11481;53.694;9.910;2022-12-18T05:34:08;-4.20;99.90
22629;DHT22;11481;53.694;9.910;2022-12-18T05:36:35;-4.20;99.90
22629;DHT22;11481;53.694;9.910;2022-12-18T05:39:02;-4.30;99.90
22629;DHT22;11481;53.694;9.910;2022-12-18T05:41:29;-4.30;99.90
22629;DHT22;11481;53.694;9.910;2022-12-18T05:43:56;-4.30;99.90
22629;DHT22;11481;53.694;9.910;2022-12-18T05:46:23;-4.30;99.90
22629;DHT22;11481;53.694;9.910;2022-12-18T05:48:50;-4.30;99.90
22629;DHT22;11481;53.694;9.910;2022-12-18T05:51:20;-4.30;99.90
22629;DHT22;11481;53.694;9.910;2022-12-18T05:53:47;-4.30;99.90
22629;DHT22;11481;53.694;9.910;2022-12-18T05:56:17;-4.30;99.90
22629;DHT22;11481;53.694;9.910;2022-12-18T05:58:44;-4.40;99.90
22629;DHT22;11481;53.694;9.910;2022-12-18T06:01:14;-4.30;99.90
22629;DHT22;11481;53.694;9.910;2022-12-18T06:03:42;-4.30;99.90
22629;DHT22;11481;53.694;9.910;2022-12-18T06:06:19;-4.30;99.90
22629;DHT22;11481;53.694;9.910;2022-12-18T06:08:46;-4.30;99.90
22629;DHT22;11481;53.694;9.910;2022-12-18T06:11:16;-4.30;99.90
22629;DHT22;11481;53.694;9.910;2022-12-18T06:13:43;-4.30;99.90
22629;DHT22;11481;53.694;9.910;2022-12-18T06:16:10;-4.30;99.90
22629;DHT22;11481;53.694;9.910;2022-12-18T06:18:37;-4.40;99.90
22629;DHT22;11481;53.694;9.910;2022-12-18T06:21:04;-4.40;99.90
22629;DHT22;11481;53.694;9.910;2022-12-18T06:23:31;-4.40;99.90
22629;DHT22;11481;53.694;9.910;2022-12-18T06:25:58;-4.40;99.90
22629;DHT22;11481;53.694;9.910;2022-12-18T06:28:25;-4.40;99.90
22629;DHT22;11481;53.694;9.910;2022-12-18T06:30:51;-4.40;99.90
22629;DHT22;11481;53.694;9.910;2022-12-18T06:33:19;-4.40;99.90
22629;DHT22;11481;53.694;9.910;2022-12-18T06:35:46;-4.40;99.90
22629;DHT22;11481;53.694;9.910;2022-12-18T06:38:13;-4.40;99.90
22629;DHT22;11481;53.694;9.910;2022-12-18T06:40:39;-4.50;99.90
22629;DHT22;11481;53.694;9.910;2022-12-18T06:43:06;-4.50;99.90
22629;DHT22;11481;53.694;9.910;2022-12-18T06:45:33;-4.50;99.90
22629;DHT22;11481;53.694;9.910;2022-12-18T06:48:00;-4.50;99.90
22629;DHT22;11481;53.694;9.910;2022-12-18T06:50:26;-4.50;99.90
22629;DHT22;11481;53.694;9.910;2022-12-18T06:52:53;-4.50;99.90
22629;DHT22;11481;53.694;9.910;2022-12-18T06:55:20;-4.60;99.90
22629;DHT22;11481;53.694;9.910;2022-12-18T06:57:46;-4.60;99.90
22629;DHT22;11481;53.694;9.910;2022-12-18T07:00:13;-4.60;99.90
22629;DHT22;11481;53.694;9.910;2022-12-18T07:02:40;-4.60;99.90
22629;DHT22;11481;53.694;9.910;2022-12-18T07:05:07;-4.60;99.90
22629;DHT22;11481;53.694;9.910;2022-12-18T07:07:36;-4.60;99.90
22629;DHT22;11481;53.694;9.910;2022-12-18T07:10:03;-4.60;99.90
22629;DHT22;11481;53.694;9.910;2022-12-18T07:12:30;-4.60;99.90
22629;DHT22;11481;53.694;9.910;2022-12-18T07:14:57;-4.70;99.90
22629;DHT22;11481;53.694;9.910;2022-12-18T07:17:23;-4.70;99.90
22629;DHT22;11481;53.694;9.910;2022-12-18T07:19:51;-4.70;99.90
22629;DHT22;11481;53.694;9.910;2022-12-18T07:22:18;-4.70;99.90
22629;DHT22;11481;53.694;9.910;2022-12-18T07:24:45;-4.70;99.90
22629;DHT22;11481;53.694;9.910;2022-12-18T07:27:11;-4.70;99.90
22629;DHT22;11481;53.694;9.910;2022-12-18T07:29:38;-4.60;99.90
22629;DHT22;11481;53.694;9.910;2022-12-18T07:32:05;-4.70;99.90
22629;DHT22;11481;53.694;9.910;2022-12-18T07:34:34;-4.60;99.90
22629;DHT22;11481;53.694;9.910;2022-12-18T07:37:00;-4.70;99.90
22629;DHT22;11481;53.694;9.910;2022-12-18T07:39:27;-4.60;99.90
22629;DHT22;11481;53.694;9.910;2022-12-18T07:41:54;-4.60;99.90
22629;DHT22;11481;53.694;9.910;2022-12-18T07:44:42;-4.70;99.90
22629;DHT22;11481;53.694;9.910;2022-12-18T07:47:09;-4.60;99.90
22629;DHT22;11481;53.694;9.910;2022-12-18T07:49:37;-4.70;99.90
22629;DHT22;11481;53.694;9.910;2022-12-18T07:52:04;-4.60;99.90
22629;DHT22;11481;53.694;9.910;2022-12-18T07:54:31;-4.60;99.90
22629;DHT22;11481;53.694;9.910;2022-12-18T07:56:58;-4.60;99.90
22629;DHT22;11481;53.694;9.910;2022-12-18T07:59:25;-4.60;99.90
22629;DHT22;11481;53.694;9.910;2022-12-18T08:01:52;-4.60;99.90
22629;DHT22;11481;53.694;9.910;2022-12-18T08:04:19;-4.60;99.90
22629;DHT22;11481;53.694;9.910;2022-12-18T08:06:46;-4.60;99.90
22629;DHT22;11481;53.694;9.910;2022-12-18T08:09:14;-4.60;99.90
22629;DHT22;11481;53.694;9.910;2022-12-18T08:11:40;-4.50;99.90
22629;DHT22;11481;53.694;9.910;2022-12-18T08:14:07;-4.50;99.90
22629;DHT22;11481;53.694;9.910;2022-12-18T08:16:34;-4.50;99.90
22629;DHT22;11481;53.694;9.910;2022-12-18T08:19:01;-4.50;99.90
22629;DHT22;11481;53.694;9.910;2022-12-18T08:21:30;-4.40;99.90
22629;DHT22;11481;53.694;9.910;2022-12-18T08:23:58;-4.40;99.90
22629;DHT22;11481;53.694;9.910;2022-12-18T08:26:27;-4.40;99.90
22629;DHT22;11481;53.694;9.910;2022-12-18T08:28:55;-4.40;99.90
22629;DHT22;11481;53.694;9.910;2022-12-18T08:31:24;-4.40;99.90
22629;DHT22;11481;53.694;9.910;2022-12-18T08:33:52;-4.30;99.90
22629;DHT22;11481;53.694;9.910;2022-12-18T08:36:20;-4.30;99.90
22629;DHT22;11481;53.694;9.910;2022-12-18T08:38:47;-4.30;99.90
22629;DHT22;11481;53.694;9.910;2022-12-18T08:41:16;-4.30;99.90
22629;DHT22;11481;53.694;9.910;2022-12-18T08:43:42;-4.30;99.90
22629;DHT22;11481;53.694;9.910;2022-12-18T08:46:34;-4.20;99.90
22629;DHT22;11481;53.694;9.910;2022-12-18T08:49:01;-4.20;99.90
22629;DHT22;11481;53.694;9.910;2022-12-18T08:51:28;-4.20;99.90
22629;DHT22;11481;53.694;9.910;2022-12-18T08:53:55;-4.10;99.90
22629;DHT22;11481;53.694;9.910;2022-12-18T08:56:21;-4.10;99.90
22629;DHT22;11481;53.694;9.910;2022-12-18T08:58:51;-4.00;99.90
22629;DHT22;11481;53.694;9.910;2022-12-18T09:01:19;-4.00;99.90
22629;DHT22;11481;53.694;9.910;2022-12-18T09:03:46;-3.90;99.90
22629;DHT22;11481;53.694;9.910;2022-12-18T09:06:15;-3.90;99.90
22629;DHT22;11481;53.694;9.910;2022-12-18T09:08:43;-3.80;99.90
22629;DHT22;11481;53.694;9.910;2022-12-18T09:11:20;-3.80;99.90
22629;DHT22;11481;53.694;9.910;2022-12-18T09:13:47;-3.70;99.90
22629;DHT22;11481;53.694;9.910;2022-12-18T09:16:14;-3.60;99.90
22629;DHT22;11481;53.694;9.910;2022-12-18T09:18:41;-3.60;99.90
22629;DHT22;11481;53.694;9.910;2022-12-18T09:21:10;-3.50;99.90
22629;DHT22;11481;53.694;9.910;2022-12-18T09:23:37;-3.40;99.90
22629;DHT22;11481;53.694;9.910;2022-12-18T09:26:04;-3.40;99.90
22629;DHT22;11481;53.694;9.910;2022-12-18T09:28:31;-3.30;99.90
22629;DHT22;11481;53.694;9.910;2022-12-18T09:30:57;-3.30;99.90
22629;DHT22;11481;53.694;9.910;2022-12-18T09:33:24;-3.20;99.90
22629;DHT22;11481;53.694;9.910;2022-12-18T09:35:51;-3.10;99.90
22629;DHT22;11481;53.694;9.910;2022-12-18T09:38:19;-3.00;99.90
22629;DHT22;11481;53.694;9.910;2022-12-18T09:40:55;-2.90;99.90
22629;DHT22;11481;53.694;9.910;2022-12-18T09:43:28;-2.90;99.90
22629;DHT22;11481;53.694;9.910;2022-12-18T09:46:01;-2.80;99.90
22629;DHT22;11481;53.694;9.910;2022-12-18T09:48:34;-2.70;99.90
22629;DHT22;11481;53.694;9.910;2022-12-18T09:51:13;-2.60;99.90
22629;DHT22;11481;53.694;9.910;2022-12-18T09:53:44;-2.60;99.90
22629;DHT22;11481;53.694;9.910;2022-12-18T09:56:17;-2.50;99.90
22629;DHT22;11481;53.694;9.910;2022-12-18T09:58:58;-2.40;99.90
22629;DHT22;11481;53.694;9.910;2022-12-18T10:01:27;-2.30;99.90
22629;DHT22;11481;53.694;9.910;2022-12-18T10:04:09;-2.20;99.90
22629;DHT22;11481;53.694;9.910;2022-12-18T10:14:32;-1.90;99.90
22629;DHT22;11481;53.694;9.910;2022-12-18T10:17:11;-1.90;99.90
22629;DHT22;11481;53.694;9.910;2022-12-18T10:25:21;-1.60;99.90
22629;DHT22;11481;53.694;9.910;2022-12-18T10:27:53;-1.50;99.90
22629;DHT22;11481;53.694;9.910;2022-12-18T10:30:22;-1.60;99.90
22629;DHT22;11481;53.694;9.910;2022-12-18T10:32:49;-1.50;99.90
22629;DHT22;11481;53.694;9.910;2022-12-18T10:35:24;-1.40;99.90
22629;DHT22;11481;53.694;9.910;2022-12-18T10:41:06;-1.30;99.90
22629;DHT22;11481;53.694;9.910;2022-12-18T10:43:38;-1.20;99.90
22629;DHT22;11481;53.694;9.910;2022-12-18T10:48:55;-1.10;99.90
22629;DHT22;11481;53.694;9.910;2022-12-18T10:51:34;-1.00;99.90
22629;DHT22;11481;53.694;9.910;2022-12-18T10:54:03;-1.00;99.90
22629;DHT22;11481;53.694;9.910;2022-12-18T10:56:34;-0.90;99.90
22629;DHT22;11481;53.694;9.910;2022-12-18T10:59:04;-0.90;99.90
22629;DHT22;11481;53.694;9.910;2022-12-18T11:04:24;-0.80;99.90
22629;DHT22;11481;53.694;9.910;2022-12-18T11:06:57;-0.70;99.90
22629;DHT22;11481;53.694;9.910;2022-12-18T11:09:33;-0.50;99.90
22629;DHT22;11481;53.694;9.910;2022-12-18T11:12:03;-0.50;99.90
22629;DHT22;11481;53.694;9.910;2022-12-18T11:17:20;-0.30;99.90
22629;DHT22;11481;53.694;9.910;2022-12-18T11:19:54;-0.20;99.90
22629;DHT22;11481;53.694;9.910;2022-12-18T11:22:28;-0.20;99.90
22629;DHT22;11481;53.694;9.910;2022-12-18T11:27:52;-0.10;99.90
22629;DHT22;11481;53.694;9.910;2022-12-18T11:30:30;-0.10;99.90
22629;DHT22;11481;53.694;9.910;2022-12-18T11:33:06;-0.10;99.90
22629;DHT22;11481;53.694;9.910;2022-12-18T11:38:24;-0.10;99.90
22629;DHT22;11481;53.694;9.910;2022-12-18T11:41:21;-0.10;99.90
22629;DHT22;11481;53.694;9.910;2022-12-18T11:44:16;-0.10;99.90
22629;DHT22;11481;53.694;9.910;2022-12-18T11:47:24;0.00;99.90
22629;DHT22;11481;53.694;9.910;2022-12-18T11:49:41;0.00;99.90
22629;DHT22;11481;53.694;9.910;2022-12-18T11:52:17;0.00;99.90
22629;DHT22;11481;53.694;9.910;2022-12-18T11:54:45;0.00;99.90
22629;DHT22;11481;53.694;9.910;2022-12-18T11:57:33;-0.10;99.90
22629;DHT22;11481;53.694;9.910;2022-12-18T12:00:15;0.00;99.90
22629;DHT22;11481;53.694;9.910;2022-12-18T12:17:08;0.20;99.90
22629;DHT22;11481;53.694;9.910;2022-12-18T12:25:52;0.20;99.90
22629;DHT22;11481;53.694;9.910;2022-12-18T12:31:25;0.10;99.90
22629;DHT22;11481;53.694;9.910;2022-12-18T12:34:19;0.10;99.90
22629;DHT22;11481;53.694;9.910;2022-12-18T12:39:40;0.20;99.90
22629;DHT22;11481;53.694;9.910;2022-12-18T12:42:34;0.10;99.90
22629;DHT22;11481;53.694;9.910;2022-12-18T12:45:48;0.10;99.90
22629;DHT22;11481;53.694;9.910;2022-12-18T12:51:10;0.10;99.90
22629;DHT22;11481;53.694;9.910;2022-12-18T12:53:38;0.10;99.90
22629;DHT22;11481;53.694;9.910;2022-12-18T12:56:10;0.10;99.90
22629;DHT22;11481;53.694;9.910;2022-12-18T13:01:27;0.20;99.90
22629;DHT22;11481;53.694;9.910;2022-12-18T13:06:50;0.10;99.90
22629;DHT22;11481;53.694;9.910;2022-12-18T13:09:18;0.00;99.90
22629;DHT22;11481;53.694;9.910;2022-12-18T13:11:47;0.10;99.90
22629;DHT22;11481;53.694;9.910;2022-12-18T13:14:40;0.10;99.90
22629;DHT22;11481;53.694;9.910;2022-12-18T13:20:05;0.30;99.90
22629;DHT22;11481;53.694;9.910;2022-12-18T13:22:38;0.30;99.90
22629;DHT22;11481;53.694;9.910;2022-12-18T13:25:35;0.30;99.90
22629;DHT22;11481;53.694;9.910;2022-12-18T13:28:09;0.40;99.90
22629;DHT22;11481;53.694;9.910;2022-12-18T13:41:04;0.30;99.90
22629;DHT22;11481;53.694;9.910;2022-12-18T13:43:52;0.30;99.90
22629;DHT22;11481;53.694;9.910;2022-12-18T13:46:21;0.20;99.90
22629;DHT22;11481;53.694;9.910;2022-12-18T13:49:02;0.20;99.90
22629;DHT22;11481;53.694;9.910;2022-12-18T13:51:31;0.20;99.90
22629;DHT22;11481;53.694;9.910;2022-12-18T13:56:49;0.10;99.90
22629;DHT22;11481;53.694;9.910;2022-12-18T13:59:26;0.00;99.90
22629;DHT22;11481;53.694;9.910;2022-12-18T14:02:01;-0.10;99.90
22629;DHT22;11481;53.694;9.910;2022-12-18T14:04:34;-0.20;99.90
22629;DHT22;11481;53.694;9.910;2022-12-18T14:09:46;-0.20;99.90
22629;DHT22;11481;53.694;9.910;2022-12-18T14:15:03;-0.30;99.90
22629;DHT22;11481;53.694;9.910;2022-12-18T14:17:32;-0.30;99.90
22629;DHT22;11481;53.694;9.910;2022-12-18T14:20:00;-0.50;99.90
22629;DHT22;11481;53.694;9.910;2022-12-18T14:22:27;-0.50;99.90
22629;DHT22;11481;53.694;9.910;2022-12-18T14:25:14;-0.50;99.90
22629;DHT22;11481;53.694;9.910;2022-12-18T14:27:53;-0.60;99.90
22629;DHT22;11481;53.694;9.910;2022-12-18T14:30:32;-0.60;99.90
22629;DHT22;11481;53.694;9.910;2022-12-18T14:33:11;-0.60;99.90
22629;DHT22;11481;53.694;9.910;2022-12-18T14:35:57;-0.70;99.90
22629;DHT22;11481;53.694;9.910;2022-12-18T14:38:33;-0.70;99.90
22629;DHT22;11481;53.694;9.910;2022-12-18T14:41:05;-0.80;99.90
22629;DHT22;11481;53.694;9.910;2022-12-18T14:43:37;-0.80;99.90
22629;DHT22;11481;53.694;9.910;2022-12-18T14:46:19;-0.80;99.90
22629;DHT22;11481;53.694;9.910;2022-12-18T14:48:52;-0.90;99.90
22629;DHT22;11481;53.694;9.910;2022-12-18T14:51:25;-0.90;99.90
22629;DHT22;11481;53.694;9.910;2022-12-18T14:54:00;-1.00;99.90
22629;DHT22;11481;53.694;9.910;2022-12-18T14:56:44;-0.90;99.90
22629;DHT22;11481;53.694;9.910;2022-12-18T14:59:16;-0.90;99.90
22629;DHT22;11481;53.694;9.910;2022-12-18T15:02:12;-0.90;99.90
22629;DHT22;11481;53.694;9.910;2022-12-18T15:04:41;-0.90;99.90
22629;DHT22;11481;53.694;9.910;2022-12-18T15:07:14;-0.90;99.90
22629;DHT22;11481;53.694;9.910;2022-12-18T15:09:46;-1.00;99.90
22629;DHT22;11481;53.694;9.910;2022-12-18T15:12:36;-1.10;99.90
22629;DHT22;11481;53.694;9.910;2022-12-18T15:15:05;-1.10;99.90
22629;DHT22;11481;53.694;9.910;2022-12-18T15:17:32;-1.20;99.90
22629;DHT22;11481;53.694;9.910;2022-12-18T15:20:09;-1.20;99.90
22629;DHT22;11481;53.694;9.910;2022-12-18T15:22:37;-1.30;99.90
22629;DHT22;11481;53.694;9.910;2022-12-18T15:25:27;-1.30;99.90
22629;DHT22;11481;53.694;9.910;2022-12-18T15:27:55;-1.30;99.90
22629;DHT22;11481;53.694;9.910;2022-12-18T15:30:23;-1.30;99.90
22629;DHT22;11481;53.694;9.910;2022-12-18T15:32:52;-1.30;99.90
22629;DHT22;11481;53.694;9.910;2022-12-18T15:35:40;-1.40;99.90
22629;DHT22;11481;53.694;9.910;2022-12-18T15:38:12;-1.40;99.90
22629;DHT22;11481;53.694;9.910;2022-12-18T15:40:39;-1.30;99.90
22629;DHT22;11481;53.694;9.910;2022-12-18T15:43:08;-1.30;99.90
22629;DHT22;11481;53.694;9.910;2022-12-18T15:45:54;-1.40;99.90
22629;DHT22;11481;53.694;9.910;2022-12-18T15:48:22;-1.30;99.90
22629;DHT22;11481;53.694;9.910;2022-12-18T15:50:53;-1.40;99.90
22629;DHT22;11481;53.694;9.910;2022-12-18T15:53:22;-1.40;99.90
22629;DHT22;11481;53.694;9.910;2022-12-18T15:55:48;-1.30;99.90
22629;DHT22;11481;53.694;9.910;2022-12-18T15:58:51;-1.30;99.90
22629;DHT22;11481;53.694;9.910;2022-12-18T16:01:18;-1.30;99.90
22629;DHT22;11481;53.694;9.910;2022-12-18T16:03:45;-1.40;99.90
22629;DHT22;11481;53.694;9.910;2022-12-18T16:06:12;-1.30;99.90
22629;DHT22;11481;53.694;9.910;2022-12-18T16:08:38;-1.30;99.90
22629;DHT22;11481;53.694;9.910;2022-12-18T16:11:26;-1.30;99.90
22629;DHT22;11481;53.694;9.910;2022-12-18T16:14:23;-1.30;99.90
22629;DHT22;11481;53.694;9.910;2022-12-18T16:16:53;-1.30;99.90
22629;DHT22;11481;53.694;9.910;2022-12-18T16:19:20;-1.30;99.90
22629;DHT22;11481;53.694;9.910;2022-12-18T16:21:48;-1.40;99.90
22629;DHT22;11481;53.694;9.910;2022-12-18T16:24:18;-1.40;99.90
22629;DHT22;11481;53.694;9.910;2022-12-18T16:26:44;-1.40;99.90
22629;DHT22;11481;53.694;9.910;2022-12-18T16:29:11;-1.30;99.90
22629;DHT22;11481;53.694;9.910;2022-12-18T16:31:38;-1.30;99.90
22629;DHT22;11481;53.694;9.910;2022-12-18T16:34:24;-1.40;99.90
22629;DHT22;11481;53.694;9.910;2022-12-18T16:37:03;-1.40;99.90
22629;DHT22;11481;53.694;9.910;2022-12-18T16:39:36;-1.30;99.90
22629;DHT22;11481;53.694;9.910;2022-12-18T16:42:05;-1.30;99.90
22629;DHT22;11481;53.694;9.910;2022-12-18T16:44:34;-1.30;99.90
22629;DHT22;11481;53.694;9.910;2022-12-18T16:47:01;-1.30;99.90
22629;DHT22;11481;53.694;9.910;2022-12-18T16:49:29;-1.30;99.90
22629;DHT22;11481;53.694;9.910;2022-12-18T16:51:56;-1.30;99.90
22629;DHT22;11481;53.694;9.910;2022-12-18T16:54:22;-1.30;99.90
22629;DHT22;11481;53.694;9.910;2022-12-18T16:56:50;-1.30;99.90
22629;DHT22;11481;53.694;9.910;2022-12-18T16:59:17;-1.40;99.90
22629;DHT22;11481;53.694;9.910;2022-12-18T17:01:45;-1.40;99.90
22629;DHT22;11481;53.694;9.910;2022-12-18T17:04:12;-1.40;99.90
22629;DHT22;11481;53.694;9.910;2022-12-18T17:06:41;-1.40;99.90
22629;DHT22;11481;53.694;9.910;2022-12-18T17:09:11;-1.40;99.90
22629;DHT22;11481;53.694;9.910;2022-12-18T17:11:39;-1.50;99.90
22629;DHT22;11481;53.694;9.910;2022-12-18T17:14:07;-1.50;99.90
22629;DHT22;11481;53.694;9.910;2022-12-18T17:16:34;-1.50;99.90
22629;DHT22;11481;53.694;9.910;2022-12-18T17:19:03;-1.50;99.90
22629;DHT22;11481;53.694;9.910;2022-12-18T17:21:30;-1.50;99.90
22629;DHT22;11481;53.694;9.910;2022-12-18T17:23:59;-1.50;99.90
22629;DHT22;11481;53.694;9.910;2022-12-18T17:26:27;-1.60;99.90
22629;DHT22;11481;53.694;9.910;2022-12-18T17:28:58;-1.60;99.90
22629;DHT22;11481;53.694;9.910;2022-12-18T17:31:27;-1.60;99.90
22629;DHT22;11481;53.694;9.910;2022-12-18T17:33:56;-1.60;99.90
22629;DHT22;11481;53.694;9.910;2022-12-18T17:36:24;-1.60;99.90
22629;DHT22;11481;53.694;9.910;2022-12-18T17:38:56;-1.10;99.90